Atsuta Maru No.8 — JG5494 — position and weather

sailwx.info

Track history (hours):
 
Tides and Currents Weather Stations Pressure Air Temp Water Temp Dewpoint Dewpoint Depression Visibility Wind Speed Wind Dir Waves Ship Positions

Atsuta Maru No.8

Last reported at 2018-Jun-13 20:42 UTC. Time now 2018-Jun-22 00:01 UTC.
Position N 33°50' E 135°03'.
Warning: this ship's position is 8 days out of date.

Length 69 m; draft 4 m.

Type: Tanker. MMSI: 431100297.

Date/timePositionNaut miles runAvg speedWind from/ knotsBaromVisibWave heightAir tempDewpointWater temp
2018-Jun-13 20:42N 33°50' E 135°03'313.3
2018-Jun-13 20:30N 33°52' E 135°01'712.7
2018-Jun-13 19:59N 33°59' E 134°60'612.5
2018-Jun-13 19:30N 34°04' E 134°58'713.1
2018-Jun-13 19:00N 34°11' E 134°59'713.4
2018-Jun-13 18:31N 34°18' E 134°59'612.9
2018-Jun-13 18:01N 34°24' E 134°60'713.5
2018-Jun-13 17:30N 34°30' E 135°02'612.9
2018-Jun-13 17:00N 34°37' E 135°01'814.5
2018-Jun-13 16:27N 34°34' E 134°52'612.7
2018-Jun-13 15:57N 34°32' E 134°45'512.4
2018-Jun-13 15:30N 34°29' E 134°39'712.2
2018-Jun-13 14:58N 34°27' E 134°31'612.3
2018-Jun-13 14:30N 34°25' E 134°25'  
2018-Jun-05 08:27N 33°50' E 135°02'613.0
2018-Jun-05 08:00N 33°54' E 134°57'713.0
2018-Jun-05 07:27N 34°00' E 134°53'613.0
2018-Jun-05 07:00N 34°05' E 134°48'712.9
2018-Jun-05 06:25N 34°10' E 134°42'913.4
2018-Jun-05 05:43N 34°17' E 134°34'312.9
2018-Jun-05 05:29N 34°18' E 134°30'612.8
2018-Jun-05 05:00N 34°20' E 134°24'15 1.3
2018-Jun-04 17:32N 34°24' E 134°06'010.7
2018-Jun-04 17:30N 34°24' E 134°06'611.2
2018-Jun-04 17:00N 34°23' E 134°13'612.0
2018-Jun-04 16:29N 34°22' E 134°20'612.0
2018-Jun-04 16:00N 34°20' E 134°27'712.2
2018-Jun-04 15:25N 34°17' E 134°35'511.8
2018-Jun-04 14:58N 34°14' E 134°40'912.7
2018-Jun-04 14:18N 34°07' E 134°46'311.9
2018-Jun-04 14:00N 34°04' E 134°49'712.0
2018-Jun-04 13:23N 33°58' E 134°55'511.9
2018-Jun-04 13:00N 33°55' E 134°58'  
Track history (hours):
 
Tides and Currents Weather Stations Pressure Air Temp Water Temp Dewpoint Dewpoint Depression Visibility Wind Speed Wind Dir Waves Ship Positions

Atsuta Maru No.8

Last reported at 2018-Jun-13 20:42 UTC. Time now 2018-Jun-22 00:01 UTC.
Position N 33°50' E 135°03'.
Warning: this ship's position is 8 days out of date.

Length 69 m; draft 4 m.

Type: Tanker. MMSI: 431100297.

Date/timePositionNaut miles runAvg speedWind from/ knotsBaromVisibWave heightAir tempDewpointWater temp
2018-Jun-13 20:42N 33°50' E 135°03'313.3
2018-Jun-13 20:30N 33°52' E 135°01'712.7
2018-Jun-13 19:59N 33°59' E 134°60'612.5
2018-Jun-13 19:30N 34°04' E 134°58'713.1
2018-Jun-13 19:00N 34°11' E 134°59'713.4
2018-Jun-13 18:31N 34°18' E 134°59'612.9
2018-Jun-13 18:01N 34°24' E 134°60'713.5
2018-Jun-13 17:30N 34°30' E 135°02'612.9
2018-Jun-13 17:00N 34°37' E 135°01'814.5
2018-Jun-13 16:27N 34°34' E 134°52'612.7
2018-Jun-13 15:57N 34°32' E 134°45'512.4
2018-Jun-13 15:30N 34°29' E 134°39'712.2
2018-Jun-13 14:58N 34°27' E 134°31'612.3
2018-Jun-13 14:30N 34°25' E 134°25'  
2018-Jun-05 08:27N 33°50' E 135°02'613.0
2018-Jun-05 08:00N 33°54' E 134°57'713.0
2018-Jun-05 07:27N 34°00' E 134°53'613.0
2018-Jun-05 07:00N 34°05' E 134°48'712.9
2018-Jun-05 06:25N 34°10' E 134°42'913.4
2018-Jun-05 05:43N 34°17' E 134°34'312.9
2018-Jun-05 05:29N 34°18' E 134°30'612.8
2018-Jun-05 05:00N 34°20' E 134°24'15 1.3
2018-Jun-04 17:32N 34°24' E 134°06'010.7
2018-Jun-04 17:30N 34°24' E 134°06'611.2
2018-Jun-04 17:00N 34°23' E 134°13'612.0
2018-Jun-04 16:29N 34°22' E 134°20'612.0
2018-Jun-04 16:00N 34°20' E 134°27'712.2
2018-Jun-04 15:25N 34°17' E 134°35'511.8
2018-Jun-04 14:58N 34°14' E 134°40'912.7
2018-Jun-04 14:18N 34°07' E 134°46'311.9
2018-Jun-04 14:00N 34°04' E 134°49'712.0
2018-Jun-04 13:23N 33°58' E 134°55'511.9
2018-Jun-04 13:00N 33°55' E 134°58'  

Dump ship's entire track history